createdAt,value
2022-10-19T00:01:05.847Z,6.20
2022-10-19T00:03:34.365Z,5.72
2022-10-19T00:06:10.826Z,5.70
2022-10-19T00:08:38.849Z,5.22
2022-10-19T00:11:06.862Z,5.30
2022-10-19T00:13:34.654Z,5.05
2022-10-19T00:16:02.900Z,6.15
2022-10-19T00:18:31.102Z,5.70
2022-10-19T00:21:05.891Z,5.53
2022-10-19T00:23:33.654Z,5.55
2022-10-19T00:26:01.670Z,4.90
2022-10-19T00:28:29.550Z,6.07
2022-10-19T00:30:57.353Z,4.95
2022-10-19T00:33:37.872Z,4.68
2022-10-19T00:36:06.822Z,5.00
2022-10-19T00:38:34.651Z,5.65
2022-10-19T00:41:03.147Z,5.68
2022-10-19T00:43:31.974Z,5.07
2022-10-19T00:45:59.740Z,5.75
2022-10-19T00:48:30.949Z,5.53
2022-10-19T00:51:00.782Z,5.32
2022-10-19T00:53:29.910Z,5.45
2022-10-19T00:55:58.509Z,5.45
2022-10-19T00:58:29.248Z,5.20
2022-10-19T01:01:04.059Z,4.70
2022-10-19T01:03:32.166Z,6.85
2022-10-19T01:06:00.443Z,6.30
2022-10-19T01:08:28.580Z,6.15
2022-10-19T01:10:59.283Z,5.72
2022-10-19T01:13:51.964Z,4.90
2022-10-19T01:16:23.563Z,5.22
2022-10-19T01:19:01.005Z,5.43
2022-10-19T01:21:58.233Z,5.88
2022-10-19T01:24:40.652Z,5.88
2022-10-19T01:27:11.641Z,5.57
2022-10-19T01:29:58.312Z,6.90
2022-10-19T01:32:52.460Z,6.38
2022-10-19T01:35:47.028Z,5.90
2022-10-19T01:38:24.007Z,8.35
2022-10-19T01:40:55.078Z,7.80
2022-10-19T01:45:56.213Z,8.25
2022-10-19T01:48:27.846Z,7.90
2022-10-19T01:51:01.332Z,8.15
2022-10-19T01:53:31.071Z,7.78
2022-10-19T01:56:01.018Z,6.07
2022-10-19T01:58:30.578Z,5.83
2022-10-19T02:01:00.812Z,7.45
2022-10-19T02:03:29.394Z,7.30
2022-10-19T02:05:57.392Z,8.60
2022-10-19T02:08:31.149Z,10.15
2022-10-19T02:10:59.954Z,12.15
2022-10-19T02:13:28.888Z,11.55
2022-10-19T02:15:59.352Z,12.32
2022-10-19T02:18:41.417Z,15.13
2022-10-19T02:21:12.299Z,14.88
2022-10-19T02:23:40.390Z,15.60
2022-10-19T02:26:08.107Z,15.02
2022-10-19T02:28:36.229Z,15.23
2022-10-19T02:31:03.988Z,15.95
2022-10-19T02:33:31.830Z,19.23
2022-10-19T02:36:00.099Z,19.05
2022-10-19T02:38:28.031Z,19.55
2022-10-19T02:41:03.660Z,19.25
2022-10-19T02:43:33.016Z,18.00
2022-10-19T02:46:07.262Z,18.95
2022-10-19T02:48:35.883Z,21.40
2022-10-19T02:51:03.578Z,21.92
2022-10-19T02:53:31.197Z,21.42
2022-10-19T02:55:59.043Z,23.92
2022-10-19T02:58:26.845Z,22.15
2022-10-19T03:00:54.694Z,21.52
2022-10-19T03:03:22.439Z,21.98
2022-10-19T03:05:50.034Z,24.30
2022-10-19T03:08:17.874Z,25.30
2022-10-19T03:10:45.698Z,25.70
2022-10-19T03:13:13.367Z,25.20
2022-10-19T03:15:41.090Z,25.58
2022-10-19T03:18:08.994Z,26.08
2022-10-19T03:20:36.707Z,25.20
2022-10-19T03:23:04.507Z,23.85
2022-10-19T03:25:32.422Z,26.05
2022-10-19T03:28:00.435Z,24.20
2022-10-19T03:30:28.445Z,24.92
2022-10-19T03:32:56.117Z,23.08
2022-10-19T03:35:23.866Z,22.92
2022-10-19T03:37:51.659Z,23.35
2022-10-19T03:40:19.350Z,23.20
2022-10-19T03:42:47.041Z,23.27
2022-10-19T03:45:15.021Z,22.73
2022-10-19T03:47:42.970Z,22.33
2022-10-19T03:50:13.166Z,23.45
2022-10-19T03:52:40.876Z,23.43
2022-10-19T03:55:08.796Z,26.00
2022-10-19T03:57:36.726Z,24.52
2022-10-19T04:00:08.392Z,22.75
2022-10-19T04:02:41.943Z,20.40
2022-10-19T04:05:09.785Z,19.02
2022-10-19T04:07:37.345Z,17.30
2022-10-19T04:10:05.038Z,18.48
2022-10-19T04:12:32.601Z,19.40
2022-10-19T04:15:00.068Z,17.10
2022-10-19T04:17:27.627Z,19.35
2022-10-19T04:19:55.201Z,18.35
2022-10-19T04:22:22.768Z,20.33
2022-10-19T04:24:50.272Z,20.38
2022-10-19T04:27:18.070Z,19.45
2022-10-19T04:29:45.794Z,18.63
2022-10-19T04:32:13.696Z,18.45
2022-10-19T04:34:41.378Z,19.10
2022-10-19T04:37:08.979Z,17.58
2022-10-19T04:39:39.604Z,16.75
2022-10-19T04:42:07.403Z,16.63
2022-10-19T04:44:35.089Z,15.45
2022-10-19T04:47:02.732Z,15.88
2022-10-19T04:49:30.323Z,15.65
2022-10-19T04:51:57.998Z,15.82
2022-10-19T04:54:25.704Z,16.35
2022-10-19T04:56:54.026Z,14.13
2022-10-19T04:59:21.783Z,15.45
2022-10-19T05:01:49.390Z,15.20
2022-10-19T05:04:17.039Z,17.10
2022-10-19T05:06:46.023Z,16.48
2022-10-19T05:09:14.098Z,13.93
2022-10-19T05:11:41.831Z,12.32
2022-10-19T05:14:09.549Z,11.32
2022-10-19T05:16:37.357Z,11.18
2022-10-19T05:19:05.010Z,11.77
2022-10-19T05:21:32.931Z,11.55
2022-10-19T05:24:00.561Z,11.77
2022-10-19T05:26:29.076Z,11.25
2022-10-19T05:28:59.296Z,10.55
2022-10-19T05:31:28.463Z,11.55
2022-10-19T05:33:56.560Z,11.20
2022-10-19T05:36:26.431Z,10.77
2022-10-19T05:38:57.949Z,10.45
2022-10-19T05:41:26.402Z,12.15
2022-10-19T05:44:01.224Z,12.32
2022-10-19T05:46:29.736Z,12.02
2022-10-19T05:48:58.189Z,12.02
2022-10-19T05:51:27.241Z,12.27
2022-10-19T05:53:55.355Z,12.60
2022-10-19T05:56:26.233Z,12.50
2022-10-19T06:01:21.550Z,12.38
2022-10-19T06:03:52.187Z,11.82
2022-10-19T06:06:20.315Z,13.90
2022-10-19T06:08:48.380Z,12.05
2022-10-19T06:11:17.870Z,11.65
2022-10-19T06:13:46.551Z,12.05
2022-10-19T06:16:15.343Z,11.90
2022-10-19T06:18:43.073Z,10.70
2022-10-19T06:21:14.666Z,12.02
2022-10-19T06:26:11.796Z,12.05
2022-10-19T06:28:40.951Z,12.20
2022-10-19T06:31:09.328Z,12.40
2022-10-19T06:33:40.347Z,13.43
2022-10-19T06:36:08.063Z,14.23
2022-10-19T06:38:35.800Z,13.80
2022-10-19T06:41:03.529Z,12.52
2022-10-19T06:43:33.836Z,12.40
2022-10-19T06:46:06.765Z,13.68
2022-10-19T06:48:35.329Z,13.98
2022-10-19T06:51:06.230Z,11.05
2022-10-19T06:53:35.078Z,12.23
2022-10-19T06:56:04.112Z,13.85
2022-10-19T06:58:31.703Z,12.95
2022-10-19T07:01:00.270Z,15.50
2022-10-19T07:03:28.390Z,14.00
2022-10-19T07:05:59.963Z,14.23
2022-10-19T07:08:28.383Z,14.18
2022-10-19T07:11:00.264Z,13.90
2022-10-19T07:13:28.646Z,12.35
2022-10-19T07:16:01.077Z,14.02
2022-10-19T07:18:28.839Z,13.85
2022-10-19T07:21:00.619Z,13.63
2022-10-19T07:23:29.507Z,13.30
2022-10-19T07:26:01.792Z,11.30
2022-10-19T07:28:30.277Z,11.85
2022-10-19T07:30:57.907Z,10.32
2022-10-19T07:33:25.587Z,10.18
2022-10-19T07:35:59.156Z,10.30
2022-10-19T07:38:26.901Z,11.35
2022-10-19T07:41:00.853Z,10.45
2022-10-19T07:43:28.575Z,10.85
2022-10-19T07:46:03.027Z,11.80
2022-10-19T07:48:30.773Z,11.25
2022-10-19T07:50:58.439Z,11.88
2022-10-19T07:53:26.128Z,11.68
2022-10-19T07:55:54.181Z,11.32
2022-10-19T07:58:22.044Z,11.98
2022-10-19T08:00:51.953Z,10.75
2022-10-19T08:06:09.535Z,11.90
2022-10-19T08:08:38.348Z,11.27
2022-10-19T08:11:10.110Z,11.32
2022-10-19T08:13:38.358Z,11.93
2022-10-19T08:16:06.454Z,11.48
2022-10-19T08:18:41.656Z,12.65
2022-10-19T08:21:09.303Z,11.57
2022-10-19T08:23:36.992Z,11.15
2022-10-19T08:26:07.179Z,11.25
2022-10-19T08:28:34.822Z,10.77
2022-10-19T08:31:10.236Z,11.02
2022-10-19T08:33:38.003Z,11.60
2022-10-19T08:36:06.653Z,10.60
2022-10-19T08:38:35.483Z,11.23
2022-10-19T08:41:28.789Z,10.40
2022-10-19T08:44:07.736Z,10.68
2022-10-19T08:46:49.920Z,10.20
2022-10-19T08:49:19.817Z,10.38
2022-10-19T08:51:50.414Z,10.73
2022-10-19T08:54:19.002Z,11.25
2022-10-19T08:56:51.542Z,11.45
2022-10-19T08:59:24.622Z,11.40
2022-10-19T09:02:05.133Z,10.38
2022-10-19T09:04:37.593Z,10.73
2022-10-19T09:07:17.536Z,11.85
2022-10-19T09:09:49.621Z,10.80
2022-10-19T09:12:25.547Z,10.48
2022-10-19T09:15:05.203Z,9.68
2022-10-19T09:17:33.349Z,9.48
2022-10-19T09:20:17.930Z,9.95
2022-10-19T09:22:46.391Z,8.80
2022-10-19T09:25:23.992Z,9.23
2022-10-19T09:30:30.742Z,7.47
2022-10-19T09:33:02.665Z,8.27
2022-10-19T09:35:37.040Z,9.45
2022-10-19T09:38:06.896Z,8.07
2022-10-19T09:40:35.321Z,8.33
2022-10-19T09:43:19.237Z,7.35
2022-10-19T09:45:52.986Z,8.27
2022-10-19T09:48:42.436Z,7.50
2022-10-19T09:51:14.351Z,7.85
2022-10-19T09:54:00.151Z,6.80
2022-10-19T09:56:28.525Z,5.85
2022-10-19T09:58:59.651Z,7.25
2022-10-19T10:01:41.591Z,6.82
2022-10-19T10:04:14.359Z,6.63
2022-10-19T10:06:43.468Z,7.43
2022-10-19T10:09:18.552Z,6.47
2022-10-19T10:11:48.562Z,6.97
2022-10-19T10:14:24.593Z,6.63
2022-10-19T10:16:56.406Z,6.18
2022-10-19T10:19:28.344Z,6.55
2022-10-19T10:21:57.850Z,6.18
2022-10-19T10:24:27.102Z,6.30
2022-10-19T10:27:02.744Z,5.97
2022-10-19T10:29:32.744Z,6.32
2022-10-19T10:32:06.853Z,5.97
2022-10-19T10:34:49.500Z,6.47
2022-10-19T10:37:23.287Z,6.00
2022-10-19T10:39:56.728Z,6.20
2022-10-19T10:42:56.328Z,5.78
2022-10-19T10:45:30.244Z,5.57
2022-10-19T10:47:58.579Z,5.57
2022-10-19T10:50:28.650Z,6.20
2022-10-19T10:53:01.739Z,4.85
2022-10-19T10:55:31.614Z,4.88
2022-10-19T10:58:15.155Z,5.40
2022-10-19T11:00:43.573Z,5.18
2022-10-19T11:03:23.775Z,4.97
2022-10-19T11:05:58.591Z,5.20
2022-10-19T11:11:30.356Z,4.32
2022-10-19T11:16:34.312Z,4.65
2022-10-19T11:19:17.306Z,6.47
2022-10-19T11:22:00.945Z,5.03
2022-10-19T11:24:48.648Z,4.32
2022-10-19T11:27:26.611Z,4.88
2022-10-19T11:30:11.625Z,4.90
2022-10-19T11:32:40.675Z,4.72
2022-10-19T11:35:17.444Z,4.72
2022-10-19T11:38:17.439Z,6.68
2022-10-19T11:43:58.541Z,4.40
2022-10-19T11:46:48.882Z,4.43
2022-10-19T11:49:32.660Z,4.70
2022-10-19T11:52:14.558Z,4.50
2022-10-19T11:54:59.262Z,5.10
2022-10-19T11:57:28.789Z,5.45
2022-10-19T12:00:14.821Z,5.38
2022-10-19T12:03:03.547Z,4.53
2022-10-19T12:05:44.203Z,5.43
2022-10-19T12:08:32.644Z,4.70
2022-10-19T12:11:03.443Z,4.82
2022-10-19T12:13:50.545Z,6.65
2022-10-19T12:16:19.475Z,5.32
2022-10-19T12:18:48.433Z,4.68
2022-10-19T12:21:36.750Z,4.65
2022-10-19T12:24:06.551Z,5.70
2022-10-19T12:26:36.579Z,4.77
2022-10-19T12:29:06.600Z,5.00
2022-10-19T12:31:34.356Z,4.50
2022-10-19T12:34:04.924Z,3.88
2022-10-19T12:39:07.322Z,3.70
2022-10-19T12:41:39.886Z,4.28
2022-10-19T12:44:12.889Z,3.75
2022-10-19T12:46:49.609Z,3.95
2022-10-19T12:49:29.840Z,3.97
2022-10-19T12:52:01.888Z,4.03
2022-10-19T12:54:34.509Z,4.38
2022-10-19T12:57:03.350Z,4.65
2022-10-19T12:59:35.707Z,3.47
2022-10-19T13:02:06.178Z,3.70
2022-10-19T13:07:04.186Z,3.58
2022-10-19T13:09:32.095Z,4.83
2022-10-19T13:12:19.382Z,4.18
2022-10-19T13:15:03.203Z,5.85
2022-10-19T13:17:37.314Z,6.53
2022-10-19T13:20:14.413Z,6.70
2022-10-19T13:22:46.947Z,6.55
2022-10-19T13:25:17.933Z,6.18
2022-10-19T13:27:46.537Z,6.43
2022-10-19T13:30:33.330Z,7.03
2022-10-19T13:33:00.979Z,8.32
2022-10-19T13:35:33.567Z,7.38
2022-10-19T13:38:10.686Z,7.20
2022-10-19T13:40:39.332Z,7.88
2022-10-19T13:43:17.036Z,7.70
2022-10-19T13:45:45.000Z,6.90
2022-10-19T13:48:21.522Z,8.02
2022-10-19T13:50:59.130Z,8.43
2022-10-19T13:53:35.889Z,8.38
2022-10-19T13:56:29.947Z,8.85
2022-10-19T13:59:08.662Z,8.60
2022-10-19T14:01:42.749Z,10.15
2022-10-19T14:04:18.582Z,12.20
2022-10-19T14:06:58.312Z,10.85
2022-10-19T14:09:32.178Z,11.30
2022-10-19T14:12:15.111Z,11.38
2022-10-19T14:14:43.887Z,12.02
2022-10-19T14:17:15.492Z,12.15
2022-10-19T14:19:46.734Z,11.70
2022-10-19T14:22:29.821Z,11.48
2022-10-19T14:25:05.659Z,10.93
2022-10-19T14:27:34.581Z,11.10
2022-10-19T14:30:02.701Z,13.75
2022-10-19T14:32:30.777Z,11.93
2022-10-19T14:35:00.917Z,11.70
2022-10-19T14:37:28.713Z,11.23
2022-10-19T14:40:01.311Z,13.90
2022-10-19T14:42:39.815Z,11.43
2022-10-19T14:45:13.235Z,11.20
2022-10-19T14:47:52.411Z,10.43
2022-10-19T14:50:22.359Z,10.85
2022-10-19T14:52:50.765Z,10.30
2022-10-19T14:55:19.444Z,11.10
2022-10-19T14:57:49.246Z,11.32
2022-10-19T15:00:21.828Z,9.65
2022-10-19T15:02:58.182Z,11.02
2022-10-19T15:05:28.253Z,10.77
2022-10-19T15:07:56.689Z,11.83
2022-10-19T15:10:24.350Z,11.55
2022-10-19T15:12:53.410Z,10.75
2022-10-19T15:15:25.660Z,10.85
2022-10-19T15:17:57.791Z,10.95
2022-10-19T15:20:30.451Z,11.45
2022-10-19T15:23:02.161Z,12.48
2022-10-19T15:25:33.500Z,12.18
2022-10-19T15:28:36.046Z,12.50
2022-10-19T15:31:17.675Z,13.40
2022-10-19T15:33:47.537Z,12.43
2022-10-19T15:36:18.884Z,12.68
2022-10-19T15:38:48.353Z,12.68
2022-10-19T15:41:29.872Z,13.90
2022-10-19T15:44:03.440Z,12.07
2022-10-19T15:46:33.350Z,12.35
2022-10-19T15:49:02.185Z,11.60
2022-10-19T15:51:30.097Z,11.93
2022-10-19T15:54:02.043Z,12.27
2022-10-19T15:56:31.036Z,10.98
2022-10-19T15:58:59.855Z,11.13
2022-10-19T16:01:30.160Z,10.68
2022-10-19T16:03:58.531Z,12.60
2022-10-19T16:06:28.915Z,11.93
2022-10-19T16:08:57.139Z,10.13
2022-10-19T16:11:25.265Z,10.30
2022-10-19T16:13:53.002Z,10.48
2022-10-19T16:16:31.825Z,11.30
2022-10-19T16:19:00.067Z,11.48
2022-10-19T16:21:29.663Z,13.68
2022-10-19T16:23:58.113Z,12.00
2022-10-19T16:26:38.785Z,11.90
2022-10-19T16:29:13.890Z,12.65
2022-10-19T16:34:25.708Z,10.50
2022-10-19T16:36:53.996Z,12.38
2022-10-19T16:39:21.894Z,11.25
2022-10-19T16:41:49.468Z,12.85
2022-10-19T16:44:17.050Z,12.50
2022-10-19T16:46:44.564Z,14.07
2022-10-19T16:49:17.350Z,13.60
2022-10-19T16:51:57.712Z,12.75
2022-10-19T16:54:33.875Z,15.25
2022-10-19T16:57:03.717Z,15.77
2022-10-19T16:59:35.045Z,14.35
2022-10-19T17:02:03.205Z,13.65
2022-10-19T17:04:31.418Z,13.73
2022-10-19T17:09:55.430Z,13.80
2022-10-19T17:12:30.720Z,15.95
2022-10-19T17:23:22.768Z,17.02
2022-10-19T17:28:54.343Z,14.90
2022-10-19T17:31:29.517Z,15.77
2022-10-19T17:47:40.194Z,16.20
2022-10-19T18:09:24.834Z,17.33
2022-10-19T18:23:22.051Z,17.90
2022-10-19T18:28:39.586Z,18.95
2022-10-19T18:34:24.177Z,19.90
2022-10-19T18:36:57.002Z,20.73
2022-10-19T18:39:31.906Z,18.92
2022-10-19T18:42:00.463Z,18.60
2022-10-19T18:44:35.965Z,17.92
2022-10-19T18:50:00.585Z,17.02
2022-10-19T18:52:36.171Z,19.23
2022-10-19T18:55:08.438Z,18.35
2022-10-19T18:57:40.791Z,18.92
2022-10-19T19:00:13.208Z,18.40
2022-10-19T19:02:47.514Z,17.27
2022-10-19T19:08:21.878Z,17.55
2022-10-19T19:10:56.066Z,17.80
2022-10-19T19:13:29.161Z,18.33
2022-10-19T19:16:01.144Z,16.38
2022-10-19T19:18:29.436Z,18.02
2022-10-19T19:20:57.371Z,18.35
2022-10-19T19:23:43.419Z,17.73
2022-10-19T19:26:15.962Z,17.23
2022-10-19T19:28:47.635Z,18.23
2022-10-19T19:31:19.533Z,17.27
2022-10-19T19:33:53.828Z,15.00
2022-10-19T19:36:25.774Z,12.88
2022-10-19T19:38:57.455Z,14.00
2022-10-19T19:41:27.387Z,15.50
2022-10-19T19:44:05.180Z,14.48
2022-10-19T19:46:36.029Z,14.15
2022-10-19T19:49:11.849Z,12.85
2022-10-19T19:51:42.302Z,10.23
2022-10-19T19:54:14.824Z,9.13
2022-10-19T19:56:42.782Z,10.40
2022-10-19T19:59:12.310Z,8.80
2022-10-19T20:01:43.841Z,8.68
2022-10-19T20:04:12.641Z,7.97
2022-10-19T20:06:41.223Z,8.77
2022-10-19T20:09:14.538Z,7.90
2022-10-19T20:11:43.049Z,7.80
2022-10-19T20:14:18.622Z,7.15
2022-10-19T20:16:53.323Z,7.40
2022-10-19T20:19:24.583Z,6.63
2022-10-19T20:21:59.993Z,6.32
2022-10-19T20:24:33.042Z,6.18
2022-10-19T20:27:03.482Z,6.85
2022-10-19T20:29:37.317Z,6.45
2022-10-19T20:32:12.826Z,6.97
2022-10-19T20:34:43.028Z,7.00
2022-10-19T20:37:18.246Z,5.97
2022-10-19T20:39:48.320Z,6.22
2022-10-19T20:42:24.628Z,7.40
2022-10-19T20:44:54.668Z,7.50
2022-10-19T20:47:29.739Z,8.07
2022-10-19T20:50:00.875Z,7.43
2022-10-19T20:52:32.482Z,6.95
2022-10-19T20:55:00.426Z,6.15
2022-10-19T20:57:28.689Z,6.65
2022-10-19T21:00:04.567Z,6.25
2022-10-19T21:02:36.388Z,6.50
2022-10-19T21:05:05.539Z,7.55
2022-10-19T21:07:36.460Z,7.10
2022-10-19T21:12:31.763Z,7.45
2022-10-19T21:14:59.568Z,7.10
2022-10-19T21:17:27.383Z,6.68
2022-10-19T21:19:57.278Z,7.90
2022-10-19T21:22:28.843Z,7.47
2022-10-19T21:24:56.595Z,7.38
2022-10-19T21:27:24.300Z,6.78
2022-10-19T21:29:52.855Z,7.28
2022-10-19T21:32:22.960Z,7.82
2022-10-19T21:34:51.021Z,7.00
2022-10-19T21:37:22.450Z,6.95
2022-10-19T21:39:50.109Z,6.72
2022-10-19T21:42:17.918Z,7.25
2022-10-19T21:44:45.578Z,6.72
2022-10-19T21:47:13.618Z,7.38
2022-10-19T21:49:41.357Z,6.75
2022-10-19T21:52:10.558Z,8.15
2022-10-19T21:54:41.622Z,6.93
2022-10-19T21:57:09.515Z,7.55
2022-10-19T21:59:37.234Z,7.40
2022-10-19T22:02:05.311Z,7.90
2022-10-19T22:04:33.117Z,7.30
2022-10-19T22:07:01.494Z,7.55
2022-10-19T22:09:29.762Z,6.85
2022-10-19T22:11:57.514Z,7.40
2022-10-19T22:14:25.802Z,7.18
2022-10-19T22:16:53.572Z,7.47
2022-10-19T22:19:21.519Z,7.43
2022-10-19T22:21:49.355Z,7.47
2022-10-19T22:24:17.335Z,7.30
2022-10-19T22:26:46.873Z,8.52
2022-10-19T22:29:14.754Z,8.25
2022-10-19T22:31:42.508Z,9.07
2022-10-19T22:34:11.890Z,7.53
2022-10-19T22:36:39.955Z,8.27
2022-10-19T22:39:07.780Z,9.35
2022-10-19T22:41:35.753Z,9.13
2022-10-19T22:44:41.199Z,7.68
2022-10-19T22:48:05.055Z,8.35
2022-10-19T22:51:47.755Z,8.20
2022-10-19T22:54:34.072Z,8.82
2022-10-19T22:57:02.004Z,8.57
2022-10-19T22:59:30.117Z,8.07
2022-10-19T23:01:58.317Z,8.40
2022-10-19T23:04:26.622Z,9.70
2022-10-19T23:06:55.210Z,8.77
2022-10-19T23:09:23.829Z,8.23
2022-10-19T23:11:51.657Z,9.23
2022-10-19T23:14:19.425Z,8.65
2022-10-19T23:16:47.056Z,8.40
2022-10-19T23:19:14.638Z,8.45
2022-10-19T23:21:43.693Z,8.80
2022-10-19T23:24:11.451Z,8.68
2022-10-19T23:26:39.154Z,9.13
2022-10-19T23:29:07.165Z,8.82
2022-10-19T23:31:34.991Z,9.38
2022-10-19T23:34:02.911Z,9.35
2022-10-19T23:36:30.580Z,9.40
2022-10-19T23:38:58.947Z,8.77
2022-10-19T23:41:26.713Z,9.77
2022-10-19T23:43:54.810Z,9.70
2022-10-19T23:46:22.441Z,9.25
2022-10-19T23:48:50.146Z,9.70
2022-10-19T23:51:19.692Z,9.65
2022-10-19T23:53:48.627Z,10.32
2022-10-19T23:56:19.666Z,9.70
2022-10-19T23:58:47.714Z,9.55
